sensor_id;sensor_type;location;lat;lon;timestamp;P1;durP1;ratioP1;P2;durP2;ratioP2
4597;SDS011;62772;48.646;8.906;2023-04-15T00:01:57;5.43;;;3.53;;
4597;SDS011;62772;48.646;8.906;2023-04-15T00:06:58;6.77;;;2.60;;
4597;SDS011;62772;48.646;8.906;2023-04-15T00:11:59;6.00;;;3.20;;
4597;SDS011;62772;48.646;8.906;2023-04-15T00:17:01;6.43;;;3.17;;
4597;SDS011;62772;48.646;8.906;2023-04-15T00:22:02;10.77;;;3.17;;
4597;SDS011;62772;48.646;8.906;2023-04-15T00:27:02;5.57;;;3.30;;
4597;SDS011;62772;48.646;8.906;2023-04-15T00:32:03;5.33;;;3.20;;
4597;SDS011;62772;48.646;8.906;2023-04-15T00:37:04;5.83;;;3.70;;
4597;SDS011;62772;48.646;8.906;2023-04-15T00:42:04;6.67;;;3.47;;
4597;SDS011;62772;48.646;8.906;2023-04-15T00:47:04;6.00;;;3.50;;
4597;SDS011;62772;48.646;8.906;2023-04-15T00:52:05;4.37;;;2.90;;
4597;SDS011;62772;48.646;8.906;2023-04-15T00:57:06;6.53;;;2.97;;
4597;SDS011;62772;48.646;8.906;2023-04-15T01:02:07;11.20;;;3.43;;
4597;SDS011;62772;48.646;8.906;2023-04-15T01:07:07;7.60;;;3.50;;
4597;SDS011;62772;48.646;8.906;2023-04-15T01:12:09;6.23;;;3.30;;
4597;SDS011;62772;48.646;8.906;2023-04-15T01:17:11;6.17;;;2.97;;
4597;SDS011;62772;48.646;8.906;2023-04-15T01:22:13;6.23;;;3.70;;
4597;SDS011;62772;48.646;8.906;2023-04-15T01:27:14;4.90;;;3.30;;
4597;SDS011;62772;48.646;8.906;2023-04-15T01:32:14;5.67;;;3.30;;
4597;SDS011;62772;48.646;8.906;2023-04-15T01:37:15;4.87;;;3.43;;
4597;SDS011;62772;48.646;8.906;2023-04-15T01:42:16;4.77;;;3.47;;
4597;SDS011;62772;48.646;8.906;2023-04-15T01:47:17;7.73;;;3.50;;
4597;SDS011;62772;48.646;8.906;2023-04-15T01:52:17;6.87;;;3.90;;
4597;SDS011;62772;48.646;8.906;2023-04-15T01:57:18;6.70;;;3.37;;
4597;SDS011;62772;48.646;8.906;2023-04-15T02:02:18;7.73;;;3.80;;
4597;SDS011;62772;48.646;8.906;2023-04-15T02:07:19;4.93;;;3.30;;
4597;SDS011;62772;48.646;8.906;2023-04-15T02:12:19;6.70;;;4.00;;
4597;SDS011;62772;48.646;8.906;2023-04-15T02:17:20;11.60;;;3.90;;
4597;SDS011;62772;48.646;8.906;2023-04-15T02:22:20;6.10;;;3.50;;
4597;SDS011;62772;48.646;8.906;2023-04-15T02:27:21;9.77;;;4.00;;
4597;SDS011;62772;48.646;8.906;2023-04-15T02:32:23;7.73;;;3.90;;
4597;SDS011;62772;48.646;8.906;2023-04-15T02:37:24;7.00;;;3.87;;
4597;SDS011;62772;48.646;8.906;2023-04-15T02:42:29;5.47;;;3.90;;
4597;SDS011;62772;48.646;8.906;2023-04-15T02:47:34;8.20;;;3.97;;
4597;SDS011;62772;48.646;8.906;2023-04-15T02:52:35;6.07;;;3.60;;
4597;SDS011;62772;48.646;8.906;2023-04-15T02:57:35;12.63;;;4.43;;
4597;SDS011;62772;48.646;8.906;2023-04-15T03:02:40;6.83;;;3.60;;
4597;SDS011;62772;48.646;8.906;2023-04-15T03:07:41;7.20;;;3.63;;
4597;SDS011;62772;48.646;8.906;2023-04-15T03:12:41;7.83;;;3.93;;
4597;SDS011;62772;48.646;8.906;2023-04-15T03:17:46;7.70;;;3.83;;
4597;SDS011;62772;48.646;8.906;2023-04-15T03:22:48;10.10;;;4.50;;
4597;SDS011;62772;48.646;8.906;2023-04-15T03:27:49;6.30;;;3.80;;
4597;SDS011;62772;48.646;8.906;2023-04-15T03:32:51;16.20;;;3.80;;
4597;SDS011;62772;48.646;8.906;2023-04-15T03:37:51;6.67;;;3.77;;
4597;SDS011;62772;48.646;8.906;2023-04-15T03:42:52;6.20;;;3.57;;
4597;SDS011;62772;48.646;8.906;2023-04-15T03:47:52;10.30;;;4.33;;
4597;SDS011;62772;48.646;8.906;2023-04-15T03:52:52;14.10;;;3.63;;
4597;SDS011;62772;48.646;8.906;2023-04-15T03:57:53;5.47;;;3.77;;
4597;SDS011;62772;48.646;8.906;2023-04-15T04:02:53;9.60;;;4.70;;
4597;SDS011;62772;48.646;8.906;2023-04-15T04:07:54;7.80;;;4.60;;
4597;SDS011;62772;48.646;8.906;2023-04-15T04:12:54;8.47;;;4.90;;
4597;SDS011;62772;48.646;8.906;2023-04-15T04:17:55;7.27;;;4.30;;
4597;SDS011;62772;48.646;8.906;2023-04-15T04:22:56;6.23;;;4.33;;
4597;SDS011;62772;48.646;8.906;2023-04-15T04:27:56;8.83;;;3.80;;
4597;SDS011;62772;48.646;8.906;2023-04-15T04:32:57;10.40;;;4.17;;
4597;SDS011;62772;48.646;8.906;2023-04-15T04:37:57;5.70;;;3.40;;
4597;SDS011;62772;48.646;8.906;2023-04-15T04:42:58;7.87;;;3.87;;
4597;SDS011;62772;48.646;8.906;2023-04-15T04:47:59;6.40;;;4.20;;
4597;SDS011;62772;48.646;8.906;2023-04-15T04:52:59;6.27;;;3.60;;
4597;SDS011;62772;48.646;8.906;2023-04-15T04:58:00;7.00;;;4.10;;
4597;SDS011;62772;48.646;8.906;2023-04-15T05:03:01;7.70;;;4.30;;
4597;SDS011;62772;48.646;8.906;2023-04-15T05:08:01;10.90;;;4.83;;
4597;SDS011;62772;48.646;8.906;2023-04-15T05:13:02;12.70;;;4.50;;
4597;SDS011;62772;48.646;8.906;2023-04-15T05:18:02;6.20;;;4.43;;
4597;SDS011;62772;48.646;8.906;2023-04-15T05:23:03;15.87;;;5.10;;
4597;SDS011;62772;48.646;8.906;2023-04-15T05:28:03;9.43;;;4.87;;
4597;SDS011;62772;48.646;8.906;2023-04-15T05:33:04;11.67;;;5.27;;
4597;SDS011;62772;48.646;8.906;2023-04-15T05:38:05;8.63;;;4.60;;
4597;SDS011;62772;48.646;8.906;2023-04-15T05:43:05;11.63;;;5.17;;
4597;SDS011;62772;48.646;8.906;2023-04-15T05:48:05;7.77;;;4.77;;
4597;SDS011;62772;48.646;8.906;2023-04-15T05:53:06;10.83;;;6.17;;
4597;SDS011;62772;48.646;8.906;2023-04-15T05:58:07;9.07;;;5.70;;
4597;SDS011;62772;48.646;8.906;2023-04-15T06:03:08;10.40;;;5.77;;
4597;SDS011;62772;48.646;8.906;2023-04-15T06:08:08;8.73;;;6.30;;
4597;SDS011;62772;48.646;8.906;2023-04-15T06:13:08;10.73;;;6.13;;
4597;SDS011;62772;48.646;8.906;2023-04-15T06:18:09;10.83;;;6.20;;
4597;SDS011;62772;48.646;8.906;2023-04-15T06:23:10;8.90;;;5.23;;
4597;SDS011;62772;48.646;8.906;2023-04-15T06:28:11;12.40;;;5.93;;
4597;SDS011;62772;48.646;8.906;2023-04-15T06:33:11;10.43;;;6.20;;
4597;SDS011;62772;48.646;8.906;2023-04-15T06:38:12;9.77;;;6.40;;
4597;SDS011;62772;48.646;8.906;2023-04-15T06:43:13;9.50;;;5.67;;
4597;SDS011;62772;48.646;8.906;2023-04-15T06:48:14;13.27;;;6.00;;
4597;SDS011;62772;48.646;8.906;2023-04-15T06:53:15;10.20;;;5.70;;
4597;SDS011;62772;48.646;8.906;2023-04-15T06:58:15;13.67;;;6.30;;
4597;SDS011;62772;48.646;8.906;2023-04-15T07:03:16;10.70;;;6.87;;
4597;SDS011;62772;48.646;8.906;2023-04-15T07:08:17;14.90;;;7.07;;
4597;SDS011;62772;48.646;8.906;2023-04-15T07:13:18;14.80;;;7.27;;
4597;SDS011;62772;48.646;8.906;2023-04-15T07:18:19;16.97;;;7.33;;
4597;SDS011;62772;48.646;8.906;2023-04-15T07:23:20;13.47;;;7.40;;
4597;SDS011;62772;48.646;8.906;2023-04-15T07:28:21;13.00;;;6.53;;
4597;SDS011;62772;48.646;8.906;2023-04-15T07:33:22;13.50;;;6.87;;
4597;SDS011;62772;48.646;8.906;2023-04-15T07:38:22;12.57;;;6.87;;
4597;SDS011;62772;48.646;8.906;2023-04-15T07:43:23;10.60;;;6.40;;
4597;SDS011;62772;48.646;8.906;2023-04-15T07:48:23;11.53;;;6.30;;
4597;SDS011;62772;48.646;8.906;2023-04-15T07:53:23;11.20;;;6.00;;
4597;SDS011;62772;48.646;8.906;2023-04-15T07:58:24;11.50;;;6.30;;
4597;SDS011;62772;48.646;8.906;2023-04-15T08:03:24;18.60;;;6.40;;
4597;SDS011;62772;48.646;8.906;2023-04-15T08:08:25;13.43;;;6.37;;
4597;SDS011;62772;48.646;8.906;2023-04-15T08:13:26;31.13;;;13.97;;
4597;SDS011;62772;48.646;8.906;2023-04-15T08:18:27;15.77;;;6.80;;
4597;SDS011;62772;48.646;8.906;2023-04-15T08:23:27;9.70;;;5.50;;
4597;SDS011;62772;48.646;8.906;2023-04-15T08:28:28;11.23;;;5.63;;
4597;SDS011;62772;48.646;8.906;2023-04-15T08:33:28;11.57;;;4.97;;
4597;SDS011;62772;48.646;8.906;2023-04-15T08:38:29;8.90;;;4.70;;
4597;SDS011;62772;48.646;8.906;2023-04-15T08:43:32;7.60;;;4.27;;
4597;SDS011;62772;48.646;8.906;2023-04-15T08:48:34;14.77;;;4.60;;
4597;SDS011;62772;48.646;8.906;2023-04-15T08:53:39;8.47;;;4.80;;
4597;SDS011;62772;48.646;8.906;2023-04-15T08:58:40;12.43;;;4.20;;
4597;SDS011;62772;48.646;8.906;2023-04-15T09:03:41;10.90;;;4.20;;
4597;SDS011;62772;48.646;8.906;2023-04-15T09:08:42;9.57;;;4.87;;
4597;SDS011;62772;48.646;8.906;2023-04-15T09:13:43;7.97;;;3.83;;
4597;SDS011;62772;48.646;8.906;2023-04-15T09:18:43;7.80;;;3.50;;
4597;SDS011;62772;48.646;8.906;2023-04-15T09:23:54;8.40;;;4.00;;
4597;SDS011;62772;48.646;8.906;2023-04-15T09:29:03;7.53;;;4.07;;
4597;SDS011;62772;48.646;8.906;2023-04-15T09:34:08;6.80;;;3.63;;
4597;SDS011;62772;48.646;8.906;2023-04-15T09:39:09;8.43;;;3.73;;
4597;SDS011;62772;48.646;8.906;2023-04-15T09:44:25;9.50;;;4.10;;
4597;SDS011;62772;48.646;8.906;2023-04-15T09:49:26;7.80;;;3.63;;
4597;SDS011;62772;48.646;8.906;2023-04-15T09:54:36;6.40;;;3.47;;
4597;SDS011;62772;48.646;8.906;2023-04-15T09:59:38;4.73;;;2.53;;
4597;SDS011;62772;48.646;8.906;2023-04-15T10:04:39;7.90;;;3.60;;
4597;SDS011;62772;48.646;8.906;2023-04-15T10:09:40;6.47;;;2.40;;
4597;SDS011;62772;48.646;8.906;2023-04-15T10:14:47;3.80;;;2.30;;
4597;SDS011;62772;48.646;8.906;2023-04-15T10:19:59;6.53;;;3.17;;
4597;SDS011;62772;48.646;8.906;2023-04-15T10:25:01;4.80;;;2.90;;
4597;SDS011;62772;48.646;8.906;2023-04-15T10:30:03;13.73;;;8.97;;
4597;SDS011;62772;48.646;8.906;2023-04-15T10:35:05;5.43;;;2.90;;
4597;SDS011;62772;48.646;8.906;2023-04-15T10:45:31;5.60;;;3.70;;
4597;SDS011;62772;48.646;8.906;2023-04-15T10:50:33;4.87;;;3.10;;
4597;SDS011;62772;48.646;8.906;2023-04-15T10:55:33;7.23;;;3.07;;
4597;SDS011;62772;48.646;8.906;2023-04-15T11:00:35;5.80;;;2.93;;
4597;SDS011;62772;48.646;8.906;2023-04-15T11:15:50;6.90;;;2.67;;
4597;SDS011;62772;48.646;8.906;2023-04-15T11:20:52;5.90;;;3.43;;
4597;SDS011;62772;48.646;8.906;2023-04-15T11:26:00;6.87;;;3.47;;
4597;SDS011;62772;48.646;8.906;2023-04-15T11:31:10;4.90;;;3.03;;
4597;SDS011;62772;48.646;8.906;2023-04-15T11:36:12;8.23;;;3.60;;
4597;SDS011;62772;48.646;8.906;2023-04-15T11:41:13;7.63;;;3.00;;
4597;SDS011;62772;48.646;8.906;2023-04-15T11:46:14;5.03;;;2.80;;
4597;SDS011;62772;48.646;8.906;2023-04-15T11:51:14;6.17;;;3.83;;
4597;SDS011;62772;48.646;8.906;2023-04-15T11:56:16;6.70;;;3.60;;
4597;SDS011;62772;48.646;8.906;2023-04-15T12:01:57;6.97;;;3.10;;
4597;SDS011;62772;48.646;8.906;2023-04-15T12:06:51;6.80;;;3.23;;
4597;SDS011;62772;48.646;8.906;2023-04-15T12:11:55;6.60;;;3.30;;
4597;SDS011;62772;48.646;8.906;2023-04-15T12:17:02;5.53;;;3.17;;
4597;SDS011;62772;48.646;8.906;2023-04-15T12:22:05;9.20;;;4.10;;
4597;SDS011;62772;48.646;8.906;2023-04-15T12:27:12;8.03;;;4.60;;
4597;SDS011;62772;48.646;8.906;2023-04-15T12:32:15;7.27;;;4.23;;
4597;SDS011;62772;48.646;8.906;2023-04-15T12:37:19;12.60;;;4.87;;
4597;SDS011;62772;48.646;8.906;2023-04-15T12:42:20;9.27;;;4.23;;
4597;SDS011;62772;48.646;8.906;2023-04-15T12:47:21;10.90;;;4.90;;
4597;SDS011;62772;48.646;8.906;2023-04-15T12:52:22;8.37;;;4.90;;
4597;SDS011;62772;48.646;8.906;2023-04-15T12:57:23;12.43;;;4.73;;
4597;SDS011;62772;48.646;8.906;2023-04-15T13:02:24;9.93;;;4.60;;
4597;SDS011;62772;48.646;8.906;2023-04-15T13:07:27;9.63;;;5.33;;
4597;SDS011;62772;48.646;8.906;2023-04-15T13:12:28;10.70;;;5.00;;
4597;SDS011;62772;48.646;8.906;2023-04-15T13:17:30;8.57;;;4.07;;
4597;SDS011;62772;48.646;8.906;2023-04-15T13:22:30;7.70;;;4.83;;
4597;SDS011;62772;48.646;8.906;2023-04-15T13:27:31;7.60;;;4.90;;
4597;SDS011;62772;48.646;8.906;2023-04-15T13:32:31;10.90;;;5.57;;
4597;SDS011;62772;48.646;8.906;2023-04-15T13:37:32;11.70;;;5.60;;
4597;SDS011;62772;48.646;8.906;2023-04-15T13:42:33;16.27;;;6.00;;
4597;SDS011;62772;48.646;8.906;2023-04-15T13:47:33;11.60;;;6.40;;
4597;SDS011;62772;48.646;8.906;2023-04-15T13:52:34;12.50;;;7.43;;
4597;SDS011;62772;48.646;8.906;2023-04-15T13:57:34;11.80;;;6.30;;
4597;SDS011;62772;48.646;8.906;2023-04-15T14:02:35;9.10;;;6.03;;
4597;SDS011;62772;48.646;8.906;2023-04-15T14:07:35;8.23;;;5.60;;
4597;SDS011;62772;48.646;8.906;2023-04-15T14:12:36;7.20;;;4.90;;
4597;SDS011;62772;48.646;8.906;2023-04-15T14:17:36;10.67;;;4.37;;
4597;SDS011;62772;48.646;8.906;2023-04-15T14:22:38;7.57;;;4.87;;
4597;SDS011;62772;48.646;8.906;2023-04-15T14:27:39;7.93;;;4.63;;
4597;SDS011;62772;48.646;8.906;2023-04-15T14:32:39;7.40;;;4.77;;
4597;SDS011;62772;48.646;8.906;2023-04-15T14:37:40;6.83;;;4.30;;
4597;SDS011;62772;48.646;8.906;2023-04-15T14:42:40;9.40;;;5.07;;
4597;SDS011;62772;48.646;8.906;2023-04-15T14:47:41;7.77;;;4.90;;
4597;SDS011;62772;48.646;8.906;2023-04-15T14:52:41;9.10;;;3.80;;
4597;SDS011;62772;48.646;8.906;2023-04-15T14:57:42;6.13;;;3.87;;
4597;SDS011;62772;48.646;8.906;2023-04-15T15:02:42;6.97;;;3.90;;
4597;SDS011;62772;48.646;8.906;2023-04-15T15:07:43;7.77;;;4.07;;
4597;SDS011;62772;48.646;8.906;2023-04-15T15:12:43;7.40;;;4.33;;
4597;SDS011;62772;48.646;8.906;2023-04-15T15:17:43;7.40;;;4.60;;
4597;SDS011;62772;48.646;8.906;2023-04-15T15:22:44;6.40;;;4.10;;
4597;SDS011;62772;48.646;8.906;2023-04-15T15:27:45;7.50;;;4.33;;
4597;SDS011;62772;48.646;8.906;2023-04-15T15:32:46;10.00;;;4.87;;
4597;SDS011;62772;48.646;8.906;2023-04-15T15:37:46;7.95;;;4.85;;
4597;SDS011;62772;48.646;8.906;2023-04-15T15:42:47;10.53;;;4.83;;
4597;SDS011;62772;48.646;8.906;2023-04-15T15:47:50;7.40;;;4.33;;
4597;SDS011;62772;48.646;8.906;2023-04-15T15:52:50;11.40;;;4.67;;
4597;SDS011;62772;48.646;8.906;2023-04-15T15:57:51;5.77;;;3.63;;
4597;SDS011;62772;48.646;8.906;2023-04-15T16:02:54;6.40;;;4.63;;
4597;SDS011;62772;48.646;8.906;2023-04-15T16:07:56;6.90;;;3.90;;
4597;SDS011;62772;48.646;8.906;2023-04-15T16:12:56;7.33;;;3.87;;
4597;SDS011;62772;48.646;8.906;2023-04-15T16:17:57;5.40;;;3.70;;
4597;SDS011;62772;48.646;8.906;2023-04-15T16:22:57;9.93;;;5.43;;
4597;SDS011;62772;48.646;8.906;2023-04-15T16:27:58;6.50;;;4.30;;
4597;SDS011;62772;48.646;8.906;2023-04-15T16:32:58;5.57;;;3.20;;
4597;SDS011;62772;48.646;8.906;2023-04-15T16:37:59;5.03;;;3.20;;
4597;SDS011;62772;48.646;8.906;2023-04-15T16:42:59;5.73;;;2.70;;
4597;SDS011;62772;48.646;8.906;2023-04-15T16:48:00;5.77;;;2.90;;
4597;SDS011;62772;48.646;8.906;2023-04-15T16:53:00;4.47;;;2.63;;
4597;SDS011;62772;48.646;8.906;2023-04-15T16:58:01;4.60;;;3.17;;
4597;SDS011;62772;48.646;8.906;2023-04-15T17:03:01;4.20;;;3.10;;
4597;SDS011;62772;48.646;8.906;2023-04-15T17:08:03;4.93;;;3.23;;
4597;SDS011;62772;48.646;8.906;2023-04-15T17:13:03;6.07;;;3.40;;
4597;SDS011;62772;48.646;8.906;2023-04-15T17:18:04;6.70;;;4.17;;
4597;SDS011;62772;48.646;8.906;2023-04-15T17:23:07;8.57;;;5.27;;
4597;SDS011;62772;48.646;8.906;2023-04-15T17:28:08;7.00;;;4.90;;
4597;SDS011;62772;48.646;8.906;2023-04-15T17:33:08;9.00;;;5.50;;
4597;SDS011;62772;48.646;8.906;2023-04-15T17:38:09;6.67;;;4.53;;
4597;SDS011;62772;48.646;8.906;2023-04-15T17:43:10;5.47;;;4.13;;
4597;SDS011;62772;48.646;8.906;2023-04-15T17:48:10;5.70;;;4.07;;
4597;SDS011;62772;48.646;8.906;2023-04-15T17:53:11;7.60;;;4.83;;
4597;SDS011;62772;48.646;8.906;2023-04-15T17:58:11;5.63;;;4.00;;
4597;SDS011;62772;48.646;8.906;2023-04-15T18:03:11;5.00;;;4.10;;
4597;SDS011;62772;48.646;8.906;2023-04-15T18:08:12;5.27;;;4.00;;
4597;SDS011;62772;48.646;8.906;2023-04-15T18:13:13;5.40;;;3.97;;
4597;SDS011;62772;48.646;8.906;2023-04-15T18:18:13;7.13;;;5.40;;
4597;SDS011;62772;48.646;8.906;2023-04-15T18:23:13;7.47;;;4.50;;
4597;SDS011;62772;48.646;8.906;2023-04-15T18:28:14;8.10;;;4.93;;
4597;SDS011;62772;48.646;8.906;2023-04-15T18:33:14;6.67;;;4.67;;
4597;SDS011;62772;48.646;8.906;2023-04-15T18:38:15;9.10;;;4.77;;
4597;SDS011;62772;48.646;8.906;2023-04-15T18:43:15;8.57;;;4.87;;
4597;SDS011;62772;48.646;8.906;2023-04-15T18:48:16;8.30;;;5.10;;
4597;SDS011;62772;48.646;8.906;2023-04-15T18:53:16;7.90;;;5.83;;
4597;SDS011;62772;48.646;8.906;2023-04-15T18:58:17;8.00;;;5.30;;
4597;SDS011;62772;48.646;8.906;2023-04-15T19:03:17;10.70;;;6.00;;
4597;SDS011;62772;48.646;8.906;2023-04-15T19:08:18;7.90;;;5.10;;
4597;SDS011;62772;48.646;8.906;2023-04-15T19:13:18;8.57;;;6.10;;
4597;SDS011;62772;48.646;8.906;2023-04-15T19:18:19;13.63;;;8.07;;
4597;SDS011;62772;48.646;8.906;2023-04-15T19:23:20;9.40;;;6.13;;
4597;SDS011;62772;48.646;8.906;2023-04-15T19:28:21;9.17;;;6.13;;
4597;SDS011;62772;48.646;8.906;2023-04-15T19:33:22;18.73;;;5.97;;
4597;SDS011;62772;48.646;8.906;2023-04-15T19:38:22;8.57;;;5.97;;
4597;SDS011;62772;48.646;8.906;2023-04-15T19:43:23;10.10;;;6.00;;
4597;SDS011;62772;48.646;8.906;2023-04-15T19:48:24;9.33;;;5.83;;
4597;SDS011;62772;48.646;8.906;2023-04-15T19:53:25;9.00;;;5.93;;
4597;SDS011;62772;48.646;8.906;2023-04-15T19:58:25;10.13;;;6.50;;
4597;SDS011;62772;48.646;8.906;2023-04-15T20:03:25;12.00;;;7.37;;
4597;SDS011;62772;48.646;8.906;2023-04-15T20:08:26;12.73;;;7.43;;
4597;SDS011;62772;48.646;8.906;2023-04-15T20:13:26;8.50;;;5.80;;
4597;SDS011;62772;48.646;8.906;2023-04-15T20:18:27;8.77;;;5.40;;
4597;SDS011;62772;48.646;8.906;2023-04-15T20:23:27;8.03;;;5.70;;
4597;SDS011;62772;48.646;8.906;2023-04-15T20:28:28;8.83;;;5.70;;
4597;SDS011;62772;48.646;8.906;2023-04-15T20:33:28;10.60;;;6.57;;
4597;SDS011;62772;48.646;8.906;2023-04-15T20:38:29;8.57;;;5.73;;
4597;SDS011;62772;48.646;8.906;2023-04-15T20:43:29;9.70;;;6.00;;
4597;SDS011;62772;48.646;8.906;2023-04-15T20:48:30;9.67;;;6.60;;
4597;SDS011;62772;48.646;8.906;2023-04-15T20:53:30;12.70;;;7.70;;
4597;SDS011;62772;48.646;8.906;2023-04-15T20:58:31;11.33;;;6.53;;
4597;SDS011;62772;48.646;8.906;2023-04-15T21:03:31;12.23;;;7.00;;
4597;SDS011;62772;48.646;8.906;2023-04-15T21:08:31;10.17;;;6.30;;
4597;SDS011;62772;48.646;8.906;2023-04-15T21:13:32;11.27;;;6.93;;
4597;SDS011;62772;48.646;8.906;2023-04-15T21:18:32;9.83;;;6.63;;
4597;SDS011;62772;48.646;8.906;2023-04-15T21:23:33;10.77;;;6.70;;
4597;SDS011;62772;48.646;8.906;2023-04-15T21:28:37;14.13;;;8.17;;
4597;SDS011;62772;48.646;8.906;2023-04-15T21:33:38;10.10;;;6.20;;
4597;SDS011;62772;48.646;8.906;2023-04-15T21:38:38;11.87;;;6.23;;
4597;SDS011;62772;48.646;8.906;2023-04-15T21:43:39;11.50;;;6.83;;
4597;SDS011;62772;48.646;8.906;2023-04-15T21:48:39;10.93;;;6.83;;
4597;SDS011;62772;48.646;8.906;2023-04-15T21:53:40;10.43;;;6.83;;
4597;SDS011;62772;48.646;8.906;2023-04-15T21:58:40;11.90;;;7.00;;
4597;SDS011;62772;48.646;8.906;2023-04-15T22:03:42;11.20;;;7.03;;
4597;SDS011;62772;48.646;8.906;2023-04-15T22:08:42;10.70;;;7.00;;
4597;SDS011;62772;48.646;8.906;2023-04-15T22:13:43;11.67;;;6.37;;
4597;SDS011;62772;48.646;8.906;2023-04-15T22:18:43;11.43;;;7.10;;
4597;SDS011;62772;48.646;8.906;2023-04-15T22:23:47;12.00;;;7.13;;
4597;SDS011;62772;48.646;8.906;2023-04-15T22:28:48;12.80;;;7.10;;
4597;SDS011;62772;48.646;8.906;2023-04-15T22:33:48;11.17;;;7.10;;
4597;SDS011;62772;48.646;8.906;2023-04-15T22:38:49;10.00;;;5.80;;
4597;SDS011;62772;48.646;8.906;2023-04-15T22:43:49;11.73;;;6.60;;
4597;SDS011;62772;48.646;8.906;2023-04-15T22:48:50;10.20;;;6.03;;
4597;SDS011;62772;48.646;8.906;2023-04-15T22:53:50;7.67;;;5.30;;
4597;SDS011;62772;48.646;8.906;2023-04-15T22:58:51;8.87;;;6.10;;
4597;SDS011;62772;48.646;8.906;2023-04-15T23:03:51;9.63;;;5.57;;
4597;SDS011;62772;48.646;8.906;2023-04-15T23:08:51;8.83;;;5.57;;
4597;SDS011;62772;48.646;8.906;2023-04-15T23:13:52;7.70;;;5.20;;
4597;SDS011;62772;48.646;8.906;2023-04-15T23:18:52;9.13;;;5.43;;
4597;SDS011;62772;48.646;8.906;2023-04-15T23:23:54;9.00;;;5.67;;
4597;SDS011;62772;48.646;8.906;2023-04-15T23:28:54;9.93;;;5.83;;
4597;SDS011;62772;48.646;8.906;2023-04-15T23:33:55;8.53;;;5.43;;
4597;SDS011;62772;48.646;8.906;2023-04-15T23:38:55;12.30;;;6.90;;
4597;SDS011;62772;48.646;8.906;2023-04-15T23:43:56;10.97;;;6.23;;
4597;SDS011;62772;48.646;8.906;2023-04-15T23:48:56;9.90;;;6.50;;
4597;SDS011;62772;48.646;8.906;2023-04-15T23:53:56;9.00;;;6.70;;
4597;SDS011;62772;48.646;8.906;2023-04-15T23:58:57;11.23;;;7.00;;
